Time;durP1;ratioP1;P1;durP2;ratioP2;P2;SDS_P1;SDS_P2;PMS_P1;PMS_P2;Temp;Humidity;BMP_temperature;BMP_pressure;BME280_temperature;BME280_humidity;BME280_pressure;Samples;Min_cycle;Max_cycle;Signal;HPM_P1;HPM_P2
2021/06/20 00:01:46;;;;;;;7.20;4.45;;;24.40;52.10;;;;;;6290963;28;20059;-68
2021/06/20 00:04:47;;;;;;;7.03;4.07;;;24.40;52.20;;;;;;6274346;28;20029;-68
2021/06/20 00:07:48;;;;;;;6.03;4.05;;;24.40;52.20;;;;;;6275966;28;20036;-68
2021/06/20 00:10:49;;;;;;;6.75;3.95;;;24.40;52.20;;;;;;6290684;28;20025;-68
2021/06/20 00:13:50;;;;;;;6.65;3.92;;;24.40;52.20;;;;;;6290420;28;20112;-68
2021/06/20 00:16:51;;;;;;;7.35;3.95;;;24.40;52.20;;;;;;6290356;28;20020;-68
2021/06/20 00:19:51;;;;;;;6.35;3.90;;;24.40;52.20;;;;;;6289593;28;20013;-68
2021/06/20 00:22:53;;;;;;;5.97;3.72;;;24.40;52.60;;;;;;6290147;28;20390;-67
2021/06/20 00:25:53;;;;;;;6.50;4.25;;;24.40;52.20;;;;;;6290530;28;20031;-68
2021/06/20 00:28:54;;;;;;;6.65;3.80;;;24.40;52.20;;;;;;6288229;28;20028;-68
2021/06/20 00:31:56;;;;;;;6.20;3.90;;;24.40;52.90;;;;;;6290104;28;20032;-68
2021/06/20 00:34:56;;;;;;;6.03;3.70;;;24.40;52.20;;;;;;6288274;28;20040;-69
2021/06/20 00:37:57;;;;;;;5.35;3.38;;;24.40;52.30;;;;;;6290035;28;20495;-68
2021/06/20 00:40:57;;;;;;;5.32;3.42;;;24.40;52.20;;;;;;6289760;28;20029;-69
2021/06/20 00:44:02;;;;;;;5.70;3.70;;;24.40;52.30;;;;;;6290095;28;20407;-68
2021/06/20 00:47:03;;;;;;;5.57;3.60;;;24.40;52.30;;;;;;6290185;28;20028;-68
2021/06/20 00:50:06;;;;;;;6.53;3.80;;;24.40;53.00;;;;;;6290054;28;20044;-68
2021/06/20 00:53:07;;;;;;;7.03;3.67;;;24.40;52.30;;;;;;6286629;28;20051;-69
2021/06/20 00:56:07;;;;;;;4.80;3.38;;;24.40;52.30;;;;;;6289981;28;20029;-68
2021/06/20 00:59:08;;;;;;;5.00;3.67;;;24.40;52.30;;;;;;6289724;28;20319;-68
2021/06/20 01:02:09;;;;;;;4.35;2.80;;;24.40;52.30;;;;;;6290127;28;20028;-68
2021/06/20 01:05:10;;;;;;;5.63;3.38;;;24.40;52.30;;;;;;6269266;28;20057;-69
2021/06/20 01:08:11;;;;;;;4.18;3.30;;;24.40;52.30;;;;;;6267918;28;20074;-67
2021/06/20 01:11:12;;;;;;;5.07;3.15;;;24.40;52.40;;;;;;6289486;28;20024;-68
2021/06/20 01:14:13;;;;;;;4.93;3.28;;;24.40;52.30;;;;;;6289181;28;20380;-68
2021/06/20 01:17:14;;;;;;;5.45;3.42;;;24.40;52.30;;;;;;6290362;28;20060;-68
2021/06/20 01:20:19;;;;;;;4.57;2.95;;;24.40;52.30;;;;;;6289284;28;20092;-68
2021/06/20 01:23:20;;;;;;;5.50;3.20;;;24.40;52.40;;;;;;6289337;28;20029;-68
2021/06/20 01:26:20;;;;;;;5.78;3.78;;;24.40;52.40;;;;;;6289593;28;20028;-68
2021/06/20 01:29:21;;;;;;;4.35;3.03;;;24.40;52.40;;;;;;6289301;28;20028;-68
2021/06/20 01:32:21;;;;;;;5.85;3.47;;;24.40;52.40;;;;;;6293205;28;20107;-68
2021/06/20 01:35:22;;;;;;;5.50;3.42;;;24.40;52.40;;;;;;6294177;28;20198;-68
2021/06/20 01:38:23;;;;;;;5.10;3.30;;;24.40;52.40;;;;;;6293905;28;20020;-68
2021/06/20 01:41:24;;;;;;;3.97;2.85;;;24.40;52.40;;;;;;6294389;28;20023;-68
2021/06/20 01:44:24;;;;;;;4.22;2.80;;;24.40;52.40;;;;;;6293861;28;20383;-68
2021/06/20 01:47:27;;;;;;;4.18;2.78;;;24.40;52.40;;;;;;6293836;28;20495;-68
2021/06/20 01:50:30;;;;;;;4.10;2.40;;;24.40;52.70;;;;;;6293861;28;20327;-67
2021/06/20 01:53:30;;;;;;;4.00;2.83;;;24.40;52.40;;;;;;6271289;28;20064;-69
2021/06/20 01:56:31;;;;;;;3.83;2.67;;;24.40;52.40;;;;;;6293537;28;20501;-68
2021/06/20 01:59:32;;;;;;;4.63;3.00;;;24.40;52.40;;;;;;6293739;28;20111;-68
2021/06/20 02:02:32;;;;;;;3.03;2.20;;;24.40;52.40;;;;;;6293805;28;20029;-68
2021/06/20 02:05:33;;;;;;;4.13;2.88;;;24.40;52.40;;;;;;6285071;28;20032;-68
2021/06/20 02:08:34;;;;;;;3.83;2.72;;;24.40;52.40;;;;;;6293694;28;20112;-69
2021/06/20 02:11:34;;;;;;;4.72;2.72;;;24.40;52.40;;;;;;6291883;28;20032;-68
2021/06/20 02:14:36;;;;;;;4.97;2.42;;;24.40;52.40;;;;;;6292866;28;20056;-68
2021/06/20 02:17:38;;;;;;;4.75;2.60;;;24.40;52.40;;;;;;6293969;28;20024;-69
2021/06/20 02:20:39;;;;;;;3.25;2.55;;;24.40;52.50;;;;;;6293106;28;20594;-68
2021/06/20 02:23:40;;;;;;;4.82;2.78;;;24.40;52.40;;;;;;6293713;28;20026;-68
2021/06/20 02:26:41;;;;;;;3.65;2.75;;;24.40;52.50;;;;;;6293224;28;20124;-68
2021/06/20 02:29:44;;;;;;;2.70;2.20;;;24.40;52.50;;;;;;6292706;28;20108;-68
2021/06/20 02:32:46;;;;;;;3.42;2.53;;;24.40;52.50;;;;;;6292821;28;20115;-68
2021/06/20 02:35:46;;;;;;;3.05;2.40;;;24.40;52.50;;;;;;6292559;28;20042;-68
2021/06/20 02:38:47;;;;;;;3.03;2.17;;;24.40;52.50;;;;;;6292900;28;20025;-68
2021/06/20 02:41:50;;;;;;;3.72;2.35;;;24.40;52.50;;;;;;6292086;28;20024;-68
2021/06/20 02:44:51;;;;;;;3.65;2.38;;;24.40;52.50;;;;;;6292421;28;20077;-69
2021/06/20 02:47:53;;;;;;;2.50;2.13;;;24.40;52.50;;;;;;6292654;28;20020;-68
2021/06/20 02:50:53;;;;;;;4.00;2.65;;;24.40;52.50;;;;;;6292069;28;20020;-68
2021/06/20 02:53:54;;;;;;;3.13;2.33;;;24.40;52.50;;;;;;6263841;28;20110;-68
2021/06/20 02:56:54;;;;;;;3.15;2.38;;;24.40;52.50;;;;;;6280730;28;20120;-67
2021/06/20 02:59:57;;;;;;;3.75;2.40;;;24.40;52.60;;;;;;6292276;28;20051;-68
2021/06/20 03:02:57;;;;;;;3.45;2.60;;;24.40;52.60;;;;;;6290297;28;20511;-68
2021/06/20 03:06:02;;;;;;;3.28;2.35;;;24.40;52.60;;;;;;6267396;28;20095;-68
2021/06/20 03:09:03;;;;;;;3.53;2.30;;;24.40;52.60;;;;;;6267753;28;20037;-68
2021/06/20 03:12:05;;;;;;;3.38;2.40;;;24.40;52.60;;;;;;6283714;28;20032;-69
2021/06/20 03:15:06;;;;;;;3.42;2.33;;;24.40;52.60;;;;;;6291809;28;20104;-68
2021/06/20 03:18:07;;;;;;;2.67;2.20;;;24.40;52.60;;;;;;6291929;28;20024;-68
2021/06/20 03:21:08;;;;;;;3.10;2.30;;;24.40;52.60;;;;;;6291635;28;20522;-68
2021/06/20 03:24:09;;;;;;;3.03;2.35;;;24.40;52.60;;;;;;6290959;28;20021;-68
2021/06/20 03:27:10;;;;;;;2.90;2.13;;;24.40;52.60;;;;;;6282182;28;20074;-68
2021/06/20 03:30:11;;;;;;;2.80;2.20;;;24.40;52.60;;;;;;6291802;28;20582;-68
2021/06/20 03:33:12;;;;;;;3.80;2.63;;;24.40;52.60;;;;;;6291349;28;20024;-68
2021/06/20 03:36:12;;;;;;;2.42;2.05;;;24.30;52.50;;;;;;6291267;28;20037;-68
2021/06/20 03:39:13;;;;;;;2.65;2.05;;;24.30;52.50;;;;;;6291472;28;20056;-68
2021/06/20 03:42:14;;;;;;;2.15;1.80;;;24.40;52.60;;;;;;6291353;28;20119;-68
2021/06/20 03:45:15;;;;;;;2.47;1.83;;;24.40;52.60;;;;;;6291514;28;20029;-68
2021/06/20 03:48:16;;;;;;;3.05;2.15;;;24.40;52.60;;;;;;6291573;28;20029;-68
2021/06/20 03:51:16;;;;;;;2.22;2.00;;;24.40;52.60;;;;;;6273298;28;20028;-69
2021/06/20 03:54:17;;;;;;;2.20;1.83;;;24.40;52.60;;;;;;6256036;28;20546;-68
2021/06/20 03:57:19;;;;;;;2.92;2.15;;;24.40;52.70;;;;;;6266124;28;20108;-68
2021/06/20 04:00:38;;;;;;;3.03;2.20;;;24.40;52.60;;;;;;6291601;28;20032;-68
2021/06/20 04:03:39;;;;;;;2.75;2.00;;;24.40;52.60;;;;;;6283129;28;20049;-69
2021/06/20 04:06:39;;;;;;;2.38;1.75;;;24.40;52.60;;;;;;6271273;28;20043;-68
2021/06/20 04:09:41;;;;;;;2.70;2.15;;;24.30;52.60;;;;;;6290815;28;20032;-69
2021/06/20 04:12:41;;;;;;;2.83;2.10;;;24.40;52.70;;;;;;6290674;28;20378;-68
2021/06/20 04:15:43;;;;;;;2.50;2.03;;;24.40;52.60;;;;;;6290422;28;20127;-68
2021/06/20 04:18:43;;;;;;;2.65;1.88;;;24.40;52.70;;;;;;6290218;28;20107;-68
2021/06/20 04:21:44;;;;;;;2.33;1.80;;;24.40;52.70;;;;;;6290041;28;20399;-68
2021/06/20 04:24:44;;;;;;;2.95;2.30;;;24.40;52.70;;;;;;6290603;28;20031;-68
2021/06/20 04:27:48;;;;;;;2.13;1.80;;;24.40;52.70;;;;;;6290056;28;20093;-68
2021/06/20 04:30:54;;;;;;;2.58;2.10;;;24.30;52.60;;;;;;6290534;28;20449;-68
2021/06/20 04:33:54;;;;;;;2.60;2.03;;;24.40;52.70;;;;;;6289881;28;20029;-68
2021/06/20 04:36:55;;;;;;;3.03;2.00;;;24.40;53.40;;;;;;6290135;28;20104;-68
2021/06/20 04:39:55;;;;;;;2.65;2.10;;;24.30;53.00;;;;;;6290353;28;20028;-68
2021/06/20 04:42:58;;;;;;;3.13;2.30;;;24.40;52.70;;;;;;6289628;28;20024;-67
2021/06/20 04:45:58;;;;;;;2.05;1.80;;;24.30;52.60;;;;;;6290469;28;20420;-68
2021/06/20 04:49:06;;;;;;;2.42;2.10;;;24.30;52.60;;;;;;6290162;28;20036;-68
2021/06/20 04:52:08;;;;;;;1.90;1.70;;;24.40;52.70;;;;;;6289869;28;20032;-67
2021/06/20 04:55:12;;;;;;;2.08;1.60;;;24.40;52.70;;;;;;6240554;28;20499;-68
2021/06/20 04:58:13;;;;;;;2.33;1.80;;;24.30;52.60;;;;;;6262742;28;20034;-68
2021/06/20 05:01:13;;;;;;;2.28;2.00;;;24.40;52.70;;;;;;6282780;28;20492;-68
2021/06/20 05:04:14;;;;;;;1.80;1.63;;;24.40;52.70;;;;;;6270773;28;20039;-68
2021/06/20 05:07:15;;;;;;;2.63;1.98;;;24.40;52.70;;;;;;6275408;28;20028;-68
2021/06/20 05:10:15;;;;;;;5.63;1.75;;;24.40;52.80;;;;;;6289822;28;20040;-68
2021/06/20 05:13:16;;;;;;;1.80;1.52;;;24.30;52.60;;;;;;6285266;28;20064;-68
2021/06/20 05:16:16;;;;;;;2.22;1.70;;;24.30;52.70;;;;;;6289728;28;20387;-68
2021/06/20 05:19:17;;;;;;;1.83;1.63;;;24.40;52.70;;;;;;6289662;28;20387;-68
2021/06/20 05:22:19;;;;;;;2.25;1.85;;;24.30;52.70;;;;;;6287502;28;20134;-67
2021/06/20 05:25:19;;;;;;;2.38;1.90;;;24.30;52.70;;;;;;6267289;28;20025;-68
2021/06/20 05:28:20;;;;;;;2.58;2.10;;;24.40;52.80;;;;;;6271512;28;20044;-68
2021/06/20 05:31:20;;;;;;;1.80;1.50;;;24.40;52.80;;;;;;6289454;28;20384;-68
2021/06/20 05:34:21;;;;;;;1.77;1.50;;;24.30;52.70;;;;;;6289239;28;20372;-68
2021/06/20 05:37:22;;;;;;;2.03;1.75;;;24.30;52.70;;;;;;6289687;28;20028;-68
2021/06/20 05:40:22;;;;;;;1.48;1.38;;;24.30;52.70;;;;;;6289185;28;20051;-68
2021/06/20 05:43:23;;;;;;;1.65;1.50;;;24.40;52.80;;;;;;6289325;28;20066;-68
2021/06/20 05:46:25;;;;;;;1.60;1.50;;;24.40;52.80;;;;;;6289289;28;20032;-68
2021/06/20 05:49:25;;;;;;;2.45;1.70;;;24.30;52.70;;;;;;6289466;28;20063;-69
2021/06/20 05:52:27;;;;;;;1.95;1.67;;;24.30;52.70;;;;;;6283397;28;20028;-68
2021/06/20 05:55:28;;;;;;;1.75;1.65;;;24.40;52.80;;;;;;6280928;28;20083;-68
2021/06/20 05:58:28;;;;;;;2.10;1.90;;;24.40;52.80;;;;;;6289067;28;20024;-68
2021/06/20 06:01:29;;;;;;;2.13;1.90;;;24.40;52.80;;;;;;6289144;28;20078;-68
2021/06/20 06:04:30;;;;;;;2.03;1.35;;;24.40;52.80;;;;;;6285484;28;20029;-68
2021/06/20 06:07:30;;;;;;;1.88;1.60;;;24.30;52.70;;;;;;6289007;28;20320;-68
2021/06/20 06:10:31;;;;;;;1.92;1.60;;;24.40;52.80;;;;;;6289130;28;20033;-69
2021/06/20 06:13:31;;;;;;;1.52;1.40;;;24.30;52.70;;;;;;6288625;28;20024;-68
2021/06/20 06:16:32;;;;;;;1.88;1.67;;;24.30;52.70;;;;;;6289127;28;20040;-68
2021/06/20 06:19:32;;;;;;;1.50;1.40;;;24.30;52.70;;;;;;6292597;28;20383;-68
2021/06/20 06:22:33;;;;;;;1.65;1.50;;;24.40;52.80;;;;;;6293727;28;20429;-68
2021/06/20 06:25:34;;;;;;;1.48;1.38;;;24.40;52.80;;;;;;6287771;28;20075;-68
2021/06/20 06:28:34;;;;;;;1.60;1.42;;;24.40;52.80;;;;;;6293394;28;20032;-68
2021/06/20 06:31:41;;;;;;;1.50;1.40;;;24.40;52.80;;;;;;6292991;28;20154;-68
2021/06/20 06:34:41;;;;;;;1.52;1.42;;;24.40;52.90;;;;;;6292374;28;20184;-68
2021/06/20 06:37:44;;;;;;;2.00;1.65;;;24.40;52.80;;;;;;6291909;28;20024;-68
2021/06/20 06:40:44;;;;;;;1.73;1.50;;;24.40;52.80;;;;;;6292548;28;20115;-68
2021/06/20 06:43:45;;;;;;;2.22;1.70;;;24.40;52.80;;;;;;6293312;28;20020;-68
2021/06/20 06:46:46;;;;;;;1.60;1.40;;;24.40;52.90;;;;;;6292005;28;20024;-68
2021/06/20 06:49:50;;;;;;;1.60;1.30;;;24.40;52.90;;;;;;6291711;28;20285;-68
2021/06/20 06:52:50;;;;;;;1.83;1.40;;;24.40;52.90;;;;;;6280452;28;20025;-68
2021/06/20 06:55:53;;;;;;;3.22;1.50;;;24.40;53.00;;;;;;6271727;28;20362;-68
2021/06/20 06:58:53;;;;;;;1.85;1.60;;;24.40;53.00;;;;;;6291562;28;20244;-68
2021/06/20 07:01:54;;;;;;;3.25;1.27;;;24.40;53.00;;;;;;6291119;28;20032;-67
2021/06/20 07:04:54;;;;;;;1.60;1.40;;;24.40;53.10;;;;;;6273555;28;20020;-68
2021/06/20 07:07:55;;;;;;;1.85;1.65;;;24.40;53.10;;;;;;6266537;28;20438;-68
2021/06/20 07:10:55;;;;;;;1.50;1.30;;;24.40;53.20;;;;;;6278409;28;20028;-68
2021/06/20 07:13:56;;;;;;;2.08;1.55;;;24.40;53.10;;;;;;6274245;28;20060;-68
2021/06/20 07:16:56;;;;;;;1.92;1.60;;;24.40;53.00;;;;;;6285931;28;20115;-68
2021/06/20 07:19:57;;;;;;;3.28;1.42;;;24.40;53.00;;;;;;6291118;28;20115;-68
2021/06/20 07:22:57;;;;;;;1.60;1.50;;;24.40;53.00;;;;;;6291247;28;20516;-68
2021/06/20 07:25:58;;;;;;;2.17;1.40;;;24.40;53.00;;;;;;6291088;28;20028;-67
2021/06/20 07:28:59;;;;;;;1.77;1.45;;;24.40;53.00;;;;;;6290194;28;20207;-68
2021/06/20 07:31:59;;;;;;;1.50;1.40;;;24.40;53.00;;;;;;6290312;28;20082;-69
2021/06/20 07:35:00;;;;;;;1.50;1.40;;;24.40;53.00;;;;;;6290129;28;20091;-68
2021/06/20 07:38:01;;;;;;;4.13;1.30;;;24.40;53.00;;;;;;6291021;28;20056;-68
2021/06/20 07:41:01;;;;;;;2.50;1.70;;;24.40;53.00;;;;;;6289443;28;20050;-68
2021/06/20 07:44:02;;;;;;;2.28;1.67;;;24.40;53.00;;;;;;6281972;28;20031;-68
2021/06/20 07:47:03;;;;;;;3.10;1.50;;;24.40;53.00;;;;;;6282187;28;20081;-68
2021/06/20 07:50:05;;;;;;;2.17;1.58;;;24.30;52.90;;;;;;6290477;28;20028;-68
2021/06/20 07:53:07;;;;;;;2.33;1.67;;;24.40;53.00;;;;;;6274964;28;20036;-68
2021/06/20 07:56:08;;;;;;;1.55;1.42;;;24.40;53.00;;;;;;6255669;28;20039;-67
2021/06/20 07:59:08;;;;;;;2.00;1.80;;;24.40;53.00;;;;;;6289913;28;20456;-67
2021/06/20 08:02:09;;;;;;;2.13;1.80;;;24.40;53.00;;;;;;6284236;28;20055;-68
2021/06/20 08:05:10;;;;;;;3.03;1.88;;;24.40;53.00;;;;;;6270126;28;20041;-68
2021/06/20 08:08:10;;;;;;;2.05;1.65;;;24.40;53.00;;;;;;6287904;28;20059;-68
2021/06/20 08:11:11;;;;;;;1.85;1.55;;;24.30;52.90;;;;;;6289649;28;20421;-68
2021/06/20 08:14:11;;;;;;;1.77;1.58;;;24.40;53.00;;;;;;6289128;28;20060;-68
2021/06/20 08:17:12;;;;;;;1.88;1.58;;;24.40;53.10;;;;;;6289317;28;20029;-69
2021/06/20 08:20:13;;;;;;;1.60;1.40;;;24.40;53.00;;;;;;6290007;28;20077;-67
2021/06/20 08:23:14;;;;;;;1.50;1.40;;;24.40;53.00;;;;;;6289321;28;20024;-67
2021/06/20 08:26:14;;;;;;;1.80;1.45;;;24.40;53.00;;;;;;6289529;28;20513;-68
2021/06/20 08:29:15;;;;;;;1.70;1.58;;;24.40;53.00;;;;;;6274577;28;20025;-68
2021/06/20 08:32:17;;;;;;;2.38;1.70;;;24.30;53.00;;;;;;6276233;28;20519;-68
2021/06/20 08:35:19;;;;;;;1.67;1.58;;;24.40;53.00;;;;;;6289152;28;20437;-68
2021/06/20 08:38:20;;;;;;;2.08;1.60;;;24.30;52.90;;;;;;6289438;28;20107;-68
2021/06/20 08:41:22;;;;;;;1.70;1.60;;;24.30;52.90;;;;;;6288132;28;20024;-68
2021/06/20 08:44:27;;;;;;;1.65;1.42;;;24.30;52.90;;;;;;6288869;28;20491;-68
2021/06/20 08:47:28;;;;;;;1.10;1.00;;;24.40;53.00;;;;;;6278917;28;20016;-68
2021/06/20 08:50:29;;;;;;;1.58;1.33;;;24.30;53.00;;;;;;6264037;28;20036;-68
2021/06/20 08:53:30;;;;;;;4.60;1.50;;;24.40;53.10;;;;;;6260717;28;20038;-68
2021/06/20 08:56:30;;;;;;;1.52;1.42;;;24.30;53.00;;;;;;6243493;28;20029;-68
2021/06/20 08:59:31;;;;;;;1.63;1.52;;;24.30;53.00;;;;;;6288650;28;20094;-68
2021/06/20 09:02:31;;;;;;;1.23;1.13;;;24.40;53.10;;;;;;6288629;28;20416;-68
2021/06/20 09:05:32;;;;;;;2.42;1.60;;;24.30;53.00;;;;;;6265551;28;20059;-68
2021/06/20 09:08:32;;;;;;;1.67;1.50;;;24.40;53.10;;;;;;6279796;28;20039;-68
2021/06/20 09:11:38;;;;;;;1.40;1.30;;;24.30;53.00;;;;;;6288966;28;20035;-68
2021/06/20 09:14:47;;;;;;;2.10;1.88;;;24.30;53.00;;;;;;6288305;28;20487;-67
2021/06/20 09:17:56;;;;;;;1.70;1.60;;;24.30;53.00;;;;;;6288542;28;20475;-67
2021/06/20 09:20:57;;;;;;;1.90;1.48;;;24.40;53.10;;;;;;6289081;28;20028;-68
2021/06/20 09:23:59;;;;;;;1.65;1.52;;;24.30;53.00;;;;;;6288804;28;20021;-68
2021/06/20 09:27:01;;;;;;;1.95;1.42;;;24.30;53.00;;;;;;6288703;28;20049;-68
2021/06/20 09:30:15;;;;;;;1.95;1.75;;;24.40;53.10;;;;;;6288695;28;20124;-68
2021/06/20 09:33:17;;;;;;;2.30;1.67;;;24.40;53.10;;;;;;6287961;28;20037;-67
2021/06/20 09:36:27;;;;;;;1.92;1.73;;;24.30;53.10;;;;;;6287870;28;20044;-68
2021/06/20 09:39:30;;;;;;;1.67;1.55;;;24.30;53.00;;;;;;6287848;28;20107;-68
2021/06/20 09:42:39;;;;;;;1.83;1.55;;;24.30;53.00;;;;;;6288484;28;20036;-67
2021/06/20 09:45:46;;;;;;;2.17;1.70;;;24.30;53.00;;;;;;6288626;28;20486;-69
2021/06/20 09:48:47;;;;;;;1.83;1.67;;;24.30;53.00;;;;;;6287927;28;20028;-68
2021/06/20 09:51:55;;;;;;;1.60;1.50;;;24.40;53.10;;;;;;6289980;28;20333;-68
2021/06/20 09:54:59;;;;;;;1.90;1.67;;;24.30;53.00;;;;;;6289428;28;20507;-67
2021/06/20 09:58:01;;;;;;;2.85;1.83;;;24.40;53.10;;;;;;6292735;28;20479;-68
2021/06/20 10:01:10;;;;;;;2.10;1.70;;;24.30;53.00;;;;;;6292700;28;20124;-68
2021/06/20 10:04:11;;;;;;;1.33;1.23;;;24.30;53.10;;;;;;6280615;28;20246;-68
2021/06/20 10:07:12;;;;;;;1.65;1.40;;;24.30;53.10;;;;;;6268044;28;20032;-68
2021/06/20 10:10:12;;;;;;;2.55;1.88;;;24.40;53.10;;;;;;6286712;28;20029;-68
2021/06/20 10:13:13;;;;;;;2.03;1.45;;;24.30;53.10;;;;;;6292328;28;20060;-68
2021/06/20 10:16:28;;;;;;;2.63;1.90;;;24.30;53.10;;;;;;6292427;28;20081;-68
2021/06/20 10:19:30;;;;;;;1.88;1.67;;;24.30;53.10;;;;;;6292609;28;20107;-68
2021/06/20 10:22:39;;;;;;;1.52;1.42;;;24.30;53.10;;;;;;6292500;28;20040;-68
2021/06/20 10:25:40;;;;;;;3.00;2.00;;;24.30;53.10;;;;;;6291970;28;20068;-68
2021/06/20 10:28:41;;;;;;;1.52;1.33;;;24.40;53.20;;;;;;6292155;28;20051;-67
2021/06/20 10:31:42;;;;;;;1.65;1.50;;;24.30;53.10;;;;;;6292343;28;20098;-68
2021/06/20 10:35:01;;;;;;;1.80;1.40;;;24.30;53.10;;;;;;6291750;28;20459;-68
2021/06/20 10:38:02;;;;;;;1.50;1.40;;;24.30;53.10;;;;;;6292270;28;20167;-68
2021/06/20 10:41:04;;;;;;;1.52;1.42;;;24.30;53.10;;;;;;6291738;28;20113;-68
2021/06/20 10:44:04;;;;;;;1.70;1.60;;;24.30;53.10;;;;;;6291976;28;20032;-68
2021/06/20 10:47:05;;;;;;;2.97;1.40;;;24.30;53.10;;;;;;6291819;28;20035;-68
2021/06/20 10:50:08;;;;;;;1.60;1.50;;;24.30;53.10;;;;;;6291640;28;20028;-68
2021/06/20 10:53:09;;;;;;;1.58;1.42;;;24.30;53.10;;;;;;6275761;28;20028;-68
2021/06/20 10:56:27;;;;;;;1.60;1.50;;;24.30;53.10;;;;;;6276154;28;20112;-68
2021/06/20 10:59:27;;;;;;;2.08;1.50;;;24.30;53.10;;;;;;6271939;28;20098;-68
2021/06/20 11:02:33;;;;;;;1.60;1.50;;;24.30;53.10;;;;;;6291396;28;20029;-68
2021/06/20 11:05:47;;;;;;;1.40;1.30;;;24.30;53.10;;;;;;6267212;28;20033;-68
2021/06/20 11:08:55;;;;;;;2.33;1.60;;;24.30;53.10;;;;;;6266662;28;20060;-68
2021/06/20 11:12:04;;;;;;;1.83;1.52;;;24.30;53.10;;;;;;6288952;28;20039;-68
2021/06/20 11:15:06;;;;;;;2.05;1.63;;;24.30;53.10;;;;;;6291039;28;20036;-68
2021/06/20 11:18:09;;;;;;;2.10;1.30;;;24.30;53.10;;;;;;6291494;28;20056;-68
2021/06/20 11:21:10;;;;;;;1.40;1.30;;;24.30;53.10;;;;;;6289527;28;20112;-68
2021/06/20 11:24:15;;;;;;;2.45;1.40;;;24.30;53.10;;;;;;6291270;28;20410;-68
2021/06/20 11:27:17;;;;;;;;;;;24.30;53.10;;;;;;6291233;28;20044;-69
2021/06/20 11:30:19;;;;;;;1.40;1.30;;;24.30;53.10;;;;;;6290972;28;20054;-68
2021/06/20 11:33:26;;;;;;;1.60;1.50;;;24.30;53.10;;;;;;6272838;28;20104;-68
2021/06/20 11:36:28;;;;;;;1.45;1.30;;;24.30;53.20;;;;;;6281643;28;20035;-68
2021/06/20 11:39:34;;;;;;;1.50;1.20;;;24.30;53.10;;;;;;6290865;28;20387;-68
2021/06/20 11:42:36;;;;;;;2.72;1.42;;;24.30;53.10;;;;;;6290960;28;20020;-68
2021/06/20 11:45:39;;;;;;;1.85;1.58;;;24.30;53.10;;;;;;6285868;28;20552;-68
2021/06/20 11:48:50;;;;;;;1.40;1.15;;;24.30;53.10;;;;;;6291117;28;20483;-68
2021/06/20 11:51:55;;;;;;;1.50;1.40;;;24.30;53.10;;;;;;6289412;28;20502;-67
2021/06/20 11:55:08;;;;;;;1.30;1.05;;;24.30;53.10;;;;;;6244604;28;20057;-68
2021/06/20 11:58:12;;;;;;;2.40;1.65;;;24.30;53.10;;;;;;6240825;28;20463;-68
2021/06/20 12:01:12;;;;;;;1.50;1.40;;;24.30;53.20;;;;;;6260052;28;20028;-68
2021/06/20 12:04:22;;;;;;;1.60;1.50;;;24.30;53.10;;;;;;6277999;28;20032;-68
2021/06/20 12:07:26;;;;;;;1.55;1.45;;;24.30;53.20;;;;;;6283312;28;20024;-68
2021/06/20 12:10:27;;;;;;;1.52;1.40;;;24.30;53.10;;;;;;6289877;28;20036;-68
2021/06/20 12:13:38;;;;;;;1.75;1.48;;;24.30;53.10;;;;;;6289666;28;20092;-68
2021/06/20 12:16:47;;;;;;;1.60;1.50;;;24.30;53.20;;;;;;6288567;28;20450;-68
2021/06/20 12:20:12;;;;;;;1.70;1.40;;;24.30;53.20;;;;;;6270910;28;20112;-68
2021/06/20 12:23:34;;;;;;;2.28;1.30;;;24.30;53.20;;;;;;6289659;28;20384;-67
2021/06/20 12:26:35;;;;;;;1.40;1.30;;;24.30;53.20;;;;;;6288903;28;20033;-68
2021/06/20 12:29:36;;;;;;;1.55;1.45;;;24.30;53.20;;;;;;6289516;28;20111;-68
2021/06/20 12:32:37;;;;;;;1.40;1.30;;;24.30;53.20;;;;;;6289544;28;20672;-68
2021/06/20 12:35:38;;;;;;;1.60;1.40;;;24.30;53.20;;;;;;6289342;28;20102;-69
2021/06/20 12:38:38;;;;;;;2.50;1.60;;;24.30;53.20;;;;;;6288889;28;20028;-68
2021/06/20 12:41:39;;;;;;;1.23;1.13;;;24.30;53.20;;;;;;6288817;28;20081;-68
2021/06/20 12:44:51;;;;;;;2.45;1.67;;;24.30;53.20;;;;;;6289192;28;20491;-68
2021/06/20 12:47:55;;;;;;;1.30;1.20;;;24.30;53.90;;;;;;6289112;28;20521;-68
2021/06/20 12:50:56;;;;;;;1.30;1.20;;;24.30;53.40;;;;;;6288859;28;20032;-68
2021/06/20 12:54:03;;;;;;;1.45;1.25;;;24.30;53.20;;;;;;6259580;28;20025;-68
2021/06/20 12:57:05;;;;;;;1.40;1.30;;;24.30;53.20;;;;;;6256783;28;20678;-68
2021/06/20 13:00:08;;;;;;;1.20;1.10;;;24.30;53.20;;;;;;6288690;28;20047;-67
2021/06/20 13:03:09;;;;;;;1.38;1.13;;;24.30;53.20;;;;;;6285577;28;20496;-70
2021/06/20 13:06:11;;;;;;;1.70;1.10;;;24.30;53.20;;;;;;6263849;28;20024;-68
2021/06/20 13:09:11;;;;;;;1.42;1.25;;;24.30;53.20;;;;;;6287450;28;20082;-68
2021/06/20 13:12:12;;;;;;;1.98;1.38;;;24.30;53.20;;;;;;6288558;28;20476;-68
2021/06/20 13:15:14;;;;;;;1.35;1.25;;;24.30;53.30;;;;;;6288203;28;20060;-68
2021/06/20 13:18:15;;;;;;;2.85;1.08;;;24.30;53.20;;;;;;6288665;28;20021;-69
2021/06/20 13:21:15;;;;;;;3.28;1.50;;;24.30;53.20;;;;;;6288293;28;20321;-68
2021/06/20 13:24:17;;;;;;;1.20;1.10;;;24.30;53.30;;;;;;6288581;28;20024;-67
2021/06/20 13:27:18;;;;;;;1.42;1.30;;;24.30;53.20;;;;;;6290585;28;20028;-68
2021/06/20 13:30:19;;;;;;;1.60;1.30;;;24.30;53.20;;;;;;6293757;28;20301;-68
2021/06/20 13:33:20;;;;;;;1.63;1.30;;;24.30;53.20;;;;;;6292771;28;20052;-68
2021/06/20 13:36:21;;;;;;;1.75;1.30;;;24.30;53.20;;;;;;6293397;28;20044;-68
2021/06/20 13:39:22;;;;;;;1.48;1.38;;;24.30;53.30;;;;;;6293563;28;20107;-68
2021/06/20 13:42:22;;;;;;;2.72;1.33;;;24.30;53.30;;;;;;6293139;28;20043;-68
2021/06/20 13:45:24;;;;;;;1.60;1.50;;;24.40;53.30;;;;;;6293473;28;20032;-68
2021/06/20 13:48:25;;;;;;;1.92;1.38;;;24.30;53.20;;;;;;6292552;28;20025;-68
2021/06/20 13:51:25;;;;;;;1.33;1.23;;;24.30;53.30;;;;;;6293090;28;20113;-68
2021/06/20 13:54:26;;;;;;;1.30;1.20;;;24.30;53.20;;;;;;6255652;28;20313;-68
2021/06/20 13:57:30;;;;;;;1.30;1.20;;;24.30;53.20;;;;;;6247443;28;20067;-68
2021/06/20 14:00:30;;;;;;;1.30;1.15;;;24.30;53.30;;;;;;6292864;28;20055;-68
2021/06/20 14:03:31;;;;;;;1.20;1.00;;;24.30;53.30;;;;;;6286233;28;20472;-68
2021/06/20 14:06:31;;;;;;;1.30;1.20;;;24.30;53.30;;;;;;6268088;28;20050;-67
2021/06/20 14:09:32;;;;;;;1.65;1.30;;;24.30;53.30;;;;;;6282963;28;20031;-68
2021/06/20 14:12:32;;;;;;;2.00;1.30;;;24.30;53.30;;;;;;6292720;28;20020;-68
2021/06/20 14:15:33;;;;;;;1.90;1.33;;;24.30;53.30;;;;;;6291761;28;20362;-68
2021/06/20 14:18:34;;;;;;;1.92;1.50;;;24.30;53.30;;;;;;6292227;28;20121;-68
2021/06/20 14:21:34;;;;;;;1.50;1.33;;;24.30;53.20;;;;;;6292122;28;20387;-67
2021/06/20 14:24:35;;;;;;;2.17;1.60;;;24.30;53.30;;;;;;6292428;28;20502;-68
2021/06/20 14:27:35;;;;;;;1.42;1.20;;;24.30;53.20;;;;;;6292132;28;20094;-68
2021/06/20 14:30:36;;;;;;;1.10;1.00;;;24.30;53.30;;;;;;6291946;28;20025;-68
2021/06/20 14:33:37;;;;;;;1.30;1.20;;;24.30;53.30;;;;;;6291906;28;20023;-68
2021/06/20 14:36:38;;;;;;;1.35;1.15;;;24.30;53.30;;;;;;6291975;28;20024;-69
2021/06/20 14:39:38;;;;;;;1.27;1.17;;;24.30;53.30;;;;;;6290587;28;20039;-68
2021/06/20 14:42:39;;;;;;;0.95;0.88;;;24.30;53.30;;;;;;6292302;28;20463;-69
2021/06/20 14:45:39;;;;;;;1.35;1.25;;;24.30;53.30;;;;;;6286946;28;20067;-68
2021/06/20 14:48:40;;;;;;;1.55;1.10;;;24.30;53.30;;;;;;6269423;28;20021;-68
2021/06/20 14:51:40;;;;;;;1.30;1.20;;;24.30;53.30;;;;;;6291707;28;20095;-68
2021/06/20 14:54:41;;;;;;;1.85;1.33;;;24.30;53.30;;;;;;6269837;28;20101;-68
2021/06/20 14:57:42;;;;;;;0.95;0.95;;;24.30;53.40;;;;;;6291922;28;20021;-69
2021/06/20 15:00:44;;;;;;;1.60;1.20;;;24.30;53.30;;;;;;6291893;28;20066;-68
2021/06/20 15:03:44;;;;;;;1.40;1.30;;;24.30;53.30;;;;;;6283920;28;20021;-68
2021/06/20 15:06:48;;;;;;;1.20;0.98;;;24.30;53.30;;;;;;6291824;28;20020;-67
2021/06/20 15:09:48;;;;;;;1.30;1.17;;;24.40;53.40;;;;;;6291134;28;20040;-68
2021/06/20 15:12:49;;;;;;;1.27;1.17;;;24.30;53.30;;;;;;6277371;28;20480;-67
2021/06/20 15:15:49;;;;;;;1.50;1.20;;;24.30;53.30;;;;;;6277755;28;20392;-67
2021/06/20 15:18:50;;;;;;;1.20;1.10;;;24.30;53.30;;;;;;6291809;28;20074;-68
2021/06/20 15:21:51;;;;;;;1.10;1.00;;;24.30;53.30;;;;;;6291205;28;20380;-68
2021/06/20 15:24:51;;;;;;;1.20;1.02;;;24.30;53.30;;;;;;6291406;28;20021;-68
2021/06/20 15:27:53;;;;;;;1.20;1.10;;;24.30;53.30;;;;;;6291101;28;20031;-68
2021/06/20 15:30:54;;;;;;;1.27;1.10;;;24.40;53.40;;;;;;6262967;28;20055;-68
2021/06/20 15:33:55;;;;;;;1.08;0.98;;;24.40;53.40;;;;;;6260453;28;20025;-69
2021/06/20 15:36:55;;;;;;;1.17;1.00;;;24.30;53.30;;;;;;6272290;28;20254;-68
2021/06/20 15:39:56;;;;;;;1.30;1.20;;;24.30;53.30;;;;;;6265921;28;20063;-68
2021/06/20 15:42:59;;;;;;;0.80;0.80;;;24.30;53.30;;;;;;6278450;28;20078;-68
2021/06/20 15:46:00;;;;;;;1.20;1.10;;;24.30;53.30;;;;;;6284214;28;20387;-68
2021/06/20 15:49:01;;;;;;;0.90;0.90;;;24.30;53.30;;;;;;6263194;28;20048;-68